sensor_id;sensor_type;location;lat;lon;timestamp;pressure;altitude;pressure_sealevel;temperature;humidity
8366;BME280;4220;42.502;24.188;2023-01-26T00:00:07;95860.63;;;0.84;100.00
8366;BME280;4220;42.502;24.188;2023-01-26T00:02:34;95855.94;;;0.97;100.00
8366;BME280;4220;42.502;24.188;2023-01-26T00:05:01;95835.47;;;0.93;100.00
8366;BME280;4220;42.502;24.188;2023-01-26T00:07:28;95838.09;;;0.93;100.00
8366;BME280;4220;42.502;24.188;2023-01-26T00:09:54;95829.75;;;0.80;100.00
8366;BME280;4220;42.502;24.188;2023-01-26T00:12:21;95839.63;;;0.86;100.00
8366;BME280;4220;42.502;24.188;2023-01-26T00:14:48;95840.25;;;0.97;100.00
8366;BME280;4220;42.502;24.188;2023-01-26T00:17:18;95831.88;;;0.94;100.00
8366;BME280;4220;42.502;24.188;2023-01-26T00:19:55;95826.56;;;0.86;100.00
8366;BME280;4220;42.502;24.188;2023-01-26T00:22:24;95823.66;;;0.89;100.00
8366;BME280;4220;42.502;24.188;2023-01-26T00:24:51;95839.44;;;0.97;100.00
8366;BME280;4220;42.502;24.188;2023-01-26T00:27:18;95814.50;;;0.75;100.00
8366;BME280;4220;42.502;24.188;2023-01-26T00:29:44;95837.09;;;0.94;100.00
8366;BME280;4220;42.502;24.188;2023-01-26T00:32:11;95812.69;;;0.85;100.00
8366;BME280;4220;42.502;24.188;2023-01-26T00:34:39;95823.63;;;0.98;100.00
8366;BME280;4220;42.502;24.188;2023-01-26T00:37:06;95821.31;;;0.95;100.00
8366;BME280;4220;42.502;24.188;2023-01-26T00:39:33;95821.59;;;0.92;100.00
8366;BME280;4220;42.502;24.188;2023-01-26T00:42:00;95791.41;;;0.80;100.00
8366;BME280;4220;42.502;24.188;2023-01-26T00:44:35;95824.03;;;0.94;100.00
8366;BME280;4220;42.502;24.188;2023-01-26T00:47:02;95816.31;;;1.02;100.00
8366;BME280;4220;42.502;24.188;2023-01-26T00:49:29;95813.13;;;0.81;100.00
8366;BME280;4220;42.502;24.188;2023-01-26T00:51:57;95812.06;;;0.64;100.00
8366;BME280;4220;42.502;24.188;2023-01-26T00:54:24;95818.13;;;0.64;100.00
8366;BME280;4220;42.502;24.188;2023-01-26T00:56:51;95814.31;;;0.59;100.00
8366;BME280;4220;42.502;24.188;2023-01-26T00:59:18;95810.00;;;0.68;100.00
8366;BME280;4220;42.502;24.188;2023-01-26T01:01:45;95781.13;;;0.69;100.00
8366;BME280;4220;42.502;24.188;2023-01-26T01:04:13;95811.69;;;0.96;100.00
8366;BME280;4220;42.502;24.188;2023-01-26T01:06:40;95801.97;;;1.06;100.00
8366;BME280;4220;42.502;24.188;2023-01-26T01:09:09;95793.09;;;0.99;100.00
8366;BME280;4220;42.502;24.188;2023-01-26T01:11:36;95800.94;;;0.99;100.00
8366;BME280;4220;42.502;24.188;2023-01-26T01:14:02;95804.66;;;0.96;100.00
8366;BME280;4220;42.502;24.188;2023-01-26T01:16:29;95800.69;;;0.92;100.00
8366;BME280;4220;42.502;24.188;2023-01-26T01:18:56;95794.59;;;1.01;100.00
8366;BME280;4220;42.502;24.188;2023-01-26T01:21:23;95790.97;;;1.12;100.00
8366;BME280;4220;42.502;24.188;2023-01-26T01:23:50;95787.63;;;1.19;100.00
8366;BME280;4220;42.502;24.188;2023-01-26T01:26:18;95778.13;;;1.18;100.00
8366;BME280;4220;42.502;24.188;2023-01-26T01:28:45;95739.91;;;1.00;100.00
8366;BME280;4220;42.502;24.188;2023-01-26T01:31:13;95769.72;;;1.24;100.00
8366;BME280;4220;42.502;24.188;2023-01-26T01:33:40;95779.44;;;1.32;100.00
8366;BME280;4220;42.502;24.188;2023-01-26T01:36:10;95782.56;;;1.36;100.00
8366;BME280;4220;42.502;24.188;2023-01-26T01:38:38;95755.72;;;1.16;100.00
8366;BME280;4220;42.502;24.188;2023-01-26T01:41:05;95775.16;;;1.31;100.00
8366;BME280;4220;42.502;24.188;2023-01-26T01:43:33;95783.22;;;1.20;100.00
8366;BME280;4220;42.502;24.188;2023-01-26T01:46:02;95785.06;;;1.10;100.00
8366;BME280;4220;42.502;24.188;2023-01-26T01:48:37;95768.72;;;1.08;100.00
8366;BME280;4220;42.502;24.188;2023-01-26T01:51:13;95782.41;;;1.19;100.00
8366;BME280;4220;42.502;24.188;2023-01-26T01:53:44;95774.03;;;1.16;100.00
8366;BME280;4220;42.502;24.188;2023-01-26T01:56:14;95767.28;;;1.13;100.00
8366;BME280;4220;42.502;24.188;2023-01-26T01:58:49;95747.94;;;0.89;100.00
8366;BME280;4220;42.502;24.188;2023-01-26T02:01:17;95764.38;;;0.99;100.00
8366;BME280;4220;42.502;24.188;2023-01-26T02:03:46;95761.38;;;0.94;100.00
8366;BME280;4220;42.502;24.188;2023-01-26T02:06:15;95745.75;;;0.84;100.00
8366;BME280;4220;42.502;24.188;2023-01-26T02:08:47;95731.53;;;0.79;100.00
8366;BME280;4220;42.502;24.188;2023-01-26T02:11:16;95755.34;;;0.93;100.00
8366;BME280;4220;42.502;24.188;2023-01-26T02:13:46;95724.66;;;0.78;100.00
8366;BME280;4220;42.502;24.188;2023-01-26T02:16:14;95742.41;;;0.92;100.00
8366;BME280;4220;42.502;24.188;2023-01-26T02:18:41;95743.78;;;0.96;100.00
8366;BME280;4220;42.502;24.188;2023-01-26T02:21:10;95739.63;;;1.03;100.00
8366;BME280;4220;42.502;24.188;2023-01-26T02:23:49;95744.91;;;1.11;100.00
8366;BME280;4220;42.502;24.188;2023-01-26T02:26:19;95726.41;;;1.04;100.00
8366;BME280;4220;42.502;24.188;2023-01-26T02:28:47;95736.28;;;1.10;100.00
8366;BME280;4220;42.502;24.188;2023-01-26T02:31:14;95740.66;;;1.10;100.00
8366;BME280;4220;42.502;24.188;2023-01-26T02:33:42;95724.31;;;1.08;100.00
8366;BME280;4220;42.502;24.188;2023-01-26T02:36:16;95735.44;;;1.10;100.00
8366;BME280;4220;42.502;24.188;2023-01-26T02:38:48;95724.25;;;1.17;100.00
8366;BME280;4220;42.502;24.188;2023-01-26T02:41:18;95698.78;;;1.02;100.00
8366;BME280;4220;42.502;24.188;2023-01-26T02:43:59;95710.75;;;1.22;100.00
8366;BME280;4220;42.502;24.188;2023-01-26T02:46:25;95717.97;;;1.28;100.00
8366;BME280;4220;42.502;24.188;2023-01-26T02:48:52;95717.97;;;1.28;100.00
8366;BME280;4220;42.502;24.188;2023-01-26T02:51:36;95717.81;;;1.12;100.00
8366;BME280;4220;42.502;24.188;2023-01-26T02:54:03;95698.69;;;0.94;100.00
8366;BME280;4220;42.502;24.188;2023-01-26T02:56:31;95720.94;;;0.98;100.00
8366;BME280;4220;42.502;24.188;2023-01-26T02:58:57;95720.56;;;0.93;100.00
8366;BME280;4220;42.502;24.188;2023-01-26T03:01:24;95717.69;;;0.96;100.00
8366;BME280;4220;42.502;24.188;2023-01-26T03:03:51;95713.41;;;0.95;100.00
8366;BME280;4220;42.502;24.188;2023-01-26T03:06:18;95709.84;;;0.96;100.00
8366;BME280;4220;42.502;24.188;2023-01-26T03:08:45;95706.91;;;0.99;100.00
8366;BME280;4220;42.502;24.188;2023-01-26T03:11:12;95695.13;;;0.95;100.00
8366;BME280;4220;42.502;24.188;2023-01-26T03:13:40;95677.38;;;0.81;100.00
8366;BME280;4220;42.502;24.188;2023-01-26T03:16:07;95688.78;;;0.97;100.00
8366;BME280;4220;42.502;24.188;2023-01-26T03:18:36;95631.84;;;0.65;100.00
8366;BME280;4220;42.502;24.188;2023-01-26T03:21:21;95683.13;;;1.02;100.00
8366;BME280;4220;42.502;24.188;2023-01-26T03:24:09;95675.13;;;0.86;100.00
8366;BME280;4220;42.502;24.188;2023-01-26T03:26:54;95651.75;;;0.66;100.00
8366;BME280;4220;42.502;24.188;2023-01-26T03:29:39;95642.78;;;0.69;100.00
8366;BME280;4220;42.502;24.188;2023-01-26T03:32:06;95665.75;;;0.93;100.00
8366;BME280;4220;42.502;24.188;2023-01-26T03:34:33;95658.34;;;0.88;100.00
8366;BME280;4220;42.502;24.188;2023-01-26T03:37:00;95645.06;;;0.82;100.00
8366;BME280;4220;42.502;24.188;2023-01-26T03:39:27;95654.00;;;0.79;100.00
8366;BME280;4220;42.502;24.188;2023-01-26T03:42:11;95637.91;;;0.66;100.00
8366;BME280;4220;42.502;24.188;2023-01-26T03:44:57;95587.53;;;0.38;100.00
8366;BME280;4220;42.502;24.188;2023-01-26T03:47:41;95635.13;;;0.68;100.00
8366;BME280;4220;42.502;24.188;2023-01-26T03:50:26;95577.69;;;0.50;100.00
8366;BME280;4220;42.502;24.188;2023-01-26T03:53:12;95631.41;;;0.88;100.00
8366;BME280;4220;42.502;24.188;2023-01-26T03:55:56;95636.72;;;0.78;100.00
8366;BME280;4220;42.502;24.188;2023-01-26T03:58:42;95633.44;;;0.76;100.00
8366;BME280;4220;42.502;24.188;2023-01-26T04:01:11;95639.78;;;0.74;100.00
8366;BME280;4220;42.502;24.188;2023-01-26T04:03:43;95641.09;;;0.78;100.00
8366;BME280;4220;42.502;24.188;2023-01-26T04:06:27;95612.00;;;0.73;100.00
8366;BME280;4220;42.502;24.188;2023-01-26T04:09:11;95637.00;;;0.93;100.00
8366;BME280;4220;42.502;24.188;2023-01-26T04:11:39;95624.25;;;0.90;100.00
8366;BME280;4220;42.502;24.188;2023-01-26T04:14:09;95623.72;;;1.04;100.00
8366;BME280;4220;42.502;24.188;2023-01-26T04:16:55;95623.34;;;0.99;100.00
8366;BME280;4220;42.502;24.188;2023-01-26T04:19:40;95624.69;;;1.03;100.00
8366;BME280;4220;42.502;24.188;2023-01-26T04:22:24;95598.66;;;0.93;100.00
8366;BME280;4220;42.502;24.188;2023-01-26T04:24:51;95607.09;;;1.05;100.00
8366;BME280;4220;42.502;24.188;2023-01-26T04:27:18;95603.84;;;1.11;100.00
8366;BME280;4220;42.502;24.188;2023-01-26T04:29:45;95594.16;;;1.03;100.00
8366;BME280;4220;42.502;24.188;2023-01-26T04:32:13;95597.75;;;1.02;100.00
8366;BME280;4220;42.502;24.188;2023-01-26T04:34:40;95604.19;;;1.08;100.00
8366;BME280;4220;42.502;24.188;2023-01-26T04:37:08;95520.38;;;0.58;100.00
8366;BME280;4220;42.502;24.188;2023-01-26T04:39:35;95587.25;;;0.94;100.00
8366;BME280;4220;42.502;24.188;2023-01-26T04:42:01;95571.66;;;1.02;100.00
8366;BME280;4220;42.502;24.188;2023-01-26T04:44:28;95578.09;;;1.16;100.00
8366;BME280;4220;42.502;24.188;2023-01-26T04:46:55;95581.78;;;1.05;100.00
8366;BME280;4220;42.502;24.188;2023-01-26T04:49:23;95584.91;;;1.09;100.00
8366;BME280;4220;42.502;24.188;2023-01-26T04:51:50;95539.75;;;0.73;100.00
8366;BME280;4220;42.502;24.188;2023-01-26T04:54:17;95574.06;;;0.96;100.00
8366;BME280;4220;42.502;24.188;2023-01-26T04:56:44;95570.53;;;1.05;100.00
8366;BME280;4220;42.502;24.188;2023-01-26T04:59:11;95552.91;;;1.07;100.00
8366;BME280;4220;42.502;24.188;2023-01-26T05:01:39;95567.06;;;1.22;100.00
8366;BME280;4220;42.502;24.188;2023-01-26T05:04:06;95559.13;;;1.31;100.00
8366;BME280;4220;42.502;24.188;2023-01-26T05:06:35;95551.38;;;1.22;100.00
8366;BME280;4220;42.502;24.188;2023-01-26T05:09:02;95543.84;;;1.19;100.00
8366;BME280;4220;42.502;24.188;2023-01-26T05:11:29;95548.59;;;1.23;100.00
8366;BME280;4220;42.502;24.188;2023-01-26T05:13:56;95549.13;;;1.27;100.00
8366;BME280;4220;42.502;24.188;2023-01-26T05:16:23;95501.25;;;1.01;100.00
8366;BME280;4220;42.502;24.188;2023-01-26T05:18:50;95545.50;;;1.20;100.00
8366;BME280;4220;42.502;24.188;2023-01-26T05:21:17;95554.97;;;1.21;100.00
8366;BME280;4220;42.502;24.188;2023-01-26T05:23:45;95559.88;;;1.24;100.00
8366;BME280;4220;42.502;24.188;2023-01-26T05:26:12;95561.06;;;1.29;100.00
8366;BME280;4220;42.502;24.188;2023-01-26T05:28:39;95562.31;;;1.25;100.00
8366;BME280;4220;42.502;24.188;2023-01-26T05:31:05;95562.13;;;1.19;100.00
8366;BME280;4220;42.502;24.188;2023-01-26T05:33:32;95558.31;;;1.13;100.00
8366;BME280;4220;42.502;24.188;2023-01-26T05:36:03;95568.34;;;1.18;100.00
8366;BME280;4220;42.502;24.188;2023-01-26T05:38:31;95571.91;;;1.17;100.00
8366;BME280;4220;42.502;24.188;2023-01-26T05:40:59;95573.41;;;1.19;100.00
8366;BME280;4220;42.502;24.188;2023-01-26T05:43:26;95573.88;;;1.15;100.00
8366;BME280;4220;42.502;24.188;2023-01-26T05:45:53;95569.59;;;1.14;100.00
8366;BME280;4220;42.502;24.188;2023-01-26T05:48:20;95526.97;;;0.88;100.00
8366;BME280;4220;42.502;24.188;2023-01-26T05:50:46;95558.13;;;1.07;100.00
8366;BME280;4220;42.502;24.188;2023-01-26T05:53:13;95546.81;;;0.98;100.00
8366;BME280;4220;42.502;24.188;2023-01-26T05:55:40;95559.78;;;1.08;100.00
8366;BME280;4220;42.502;24.188;2023-01-26T05:58:08;95538.75;;;0.92;100.00
8366;BME280;4220;42.502;24.188;2023-01-26T06:00:35;95557.41;;;0.97;100.00
8366;BME280;4220;42.502;24.188;2023-01-26T06:03:02;95556.94;;;0.84;100.00
8366;BME280;4220;42.502;24.188;2023-01-26T06:05:31;95498.47;;;0.51;100.00
8366;BME280;4220;42.502;24.188;2023-01-26T06:07:58;95558.53;;;0.77;100.00
8366;BME280;4220;42.502;24.188;2023-01-26T06:10:24;95545.47;;;0.77;100.00
8366;BME280;4220;42.502;24.188;2023-01-26T06:12:51;95555.06;;;0.94;100.00
8366;BME280;4220;42.502;24.188;2023-01-26T06:15:21;95557.09;;;1.00;100.00
8366;BME280;4220;42.502;24.188;2023-01-26T06:17:48;95561.50;;;0.99;100.00
8366;BME280;4220;42.502;24.188;2023-01-26T06:20:15;95542.66;;;0.88;100.00
8366;BME280;4220;42.502;24.188;2023-01-26T06:22:42;95545.84;;;0.82;100.00
8366;BME280;4220;42.502;24.188;2023-01-26T06:25:09;95550.41;;;0.80;100.00
8366;BME280;4220;42.502;24.188;2023-01-26T06:27:36;95546.50;;;0.84;100.00
8366;BME280;4220;42.502;24.188;2023-01-26T06:30:07;95533.31;;;0.85;100.00
8366;BME280;4220;42.502;24.188;2023-01-26T06:32:36;95541.16;;;0.85;100.00
8366;BME280;4220;42.502;24.188;2023-01-26T06:35:07;95552.63;;;0.92;100.00
8366;BME280;4220;42.502;24.188;2023-01-26T06:37:35;95543.31;;;0.90;100.00
8366;BME280;4220;42.502;24.188;2023-01-26T06:40:04;95546.22;;;0.87;100.00
8366;BME280;4220;42.502;24.188;2023-01-26T06:42:32;95545.91;;;0.90;100.00
8366;BME280;4220;42.502;24.188;2023-01-26T06:44:58;95543.88;;;1.01;100.00
8366;BME280;4220;42.502;24.188;2023-01-26T06:47:27;95541.94;;;1.03;100.00
8366;BME280;4220;42.502;24.188;2023-01-26T06:49:55;95539.84;;;1.07;100.00
8366;BME280;4220;42.502;24.188;2023-01-26T06:52:25;95517.56;;;0.95;100.00
8366;BME280;4220;42.502;24.188;2023-01-26T06:54:54;95540.16;;;1.04;100.00
8366;BME280;4220;42.502;24.188;2023-01-26T06:57:23;95540.00;;;1.05;100.00
8366;BME280;4220;42.502;24.188;2023-01-26T06:59:51;95541.78;;;1.05;100.00
8366;BME280;4220;42.502;24.188;2023-01-26T07:02:19;95533.75;;;0.98;100.00
8366;BME280;4220;42.502;24.188;2023-01-26T07:04:50;95532.31;;;1.04;100.00
8366;BME280;4220;42.502;24.188;2023-01-26T07:07:19;95531.34;;;1.05;100.00
8366;BME280;4220;42.502;24.188;2023-01-26T07:09:46;95512.19;;;0.96;100.00
8366;BME280;4220;42.502;24.188;2023-01-26T07:12:14;95530.34;;;1.06;100.00
8366;BME280;4220;42.502;24.188;2023-01-26T07:14:41;95525.13;;;1.06;100.00
8366;BME280;4220;42.502;24.188;2023-01-26T07:17:09;95517.47;;;1.04;100.00
8366;BME280;4220;42.502;24.188;2023-01-26T07:19:36;95507.53;;;1.08;100.00
8366;BME280;4220;42.502;24.188;2023-01-26T07:22:06;95507.22;;;1.11;100.00
8366;BME280;4220;42.502;24.188;2023-01-26T07:24:35;95505.72;;;1.08;100.00
8366;BME280;4220;42.502;24.188;2023-01-26T07:27:06;95499.13;;;1.22;100.00
8366;BME280;4220;42.502;24.188;2023-01-26T07:29:33;95497.25;;;1.40;100.00
8366;BME280;4220;42.502;24.188;2023-01-26T07:32:00;95470.94;;;1.33;100.00
8366;BME280;4220;42.502;24.188;2023-01-26T07:34:26;95445.34;;;1.11;100.00
8366;BME280;4220;42.502;24.188;2023-01-26T07:36:53;95485.53;;;1.44;100.00
8366;BME280;4220;42.502;24.188;2023-01-26T07:39:20;95485.25;;;1.55;100.00
8366;BME280;4220;42.502;24.188;2023-01-26T07:41:50;95461.38;;;1.50;100.00
8366;BME280;4220;42.502;24.188;2023-01-26T07:44:21;95486.94;;;1.64;100.00
8366;BME280;4220;42.502;24.188;2023-01-26T07:46:47;95483.31;;;1.57;100.00
8366;BME280;4220;42.502;24.188;2023-01-26T07:49:15;95460.75;;;1.56;100.00
8366;BME280;4220;42.502;24.188;2023-01-26T07:51:42;95476.16;;;1.67;100.00
8366;BME280;4220;42.502;24.188;2023-01-26T07:54:11;95471.09;;;1.66;100.00
8366;BME280;4220;42.502;24.188;2023-01-26T07:56:38;95444.06;;;1.49;100.00
8366;BME280;4220;42.502;24.188;2023-01-26T07:59:06;95473.06;;;1.64;100.00
8366;BME280;4220;42.502;24.188;2023-01-26T08:01:34;95488.09;;;1.70;100.00
8366;BME280;4220;42.502;24.188;2023-01-26T08:04:01;95476.16;;;1.67;100.00
8366;BME280;4220;42.502;24.188;2023-01-26T08:06:28;95481.38;;;1.59;100.00
8366;BME280;4220;42.502;24.188;2023-01-26T08:08:54;95479.53;;;1.60;100.00
8366;BME280;4220;42.502;24.188;2023-01-26T08:11:22;95473.78;;;1.48;100.00
8366;BME280;4220;42.502;24.188;2023-01-26T08:13:51;95469.25;;;1.58;100.00
8366;BME280;4220;42.502;24.188;2023-01-26T08:16:20;95474.88;;;1.71;100.00
8366;BME280;4220;42.502;24.188;2023-01-26T08:18:48;95480.13;;;1.79;100.00
8366;BME280;4220;42.502;24.188;2023-01-26T08:21:16;95469.69;;;1.87;100.00
8366;BME280;4220;42.502;24.188;2023-01-26T08:23:47;95457.25;;;1.89;100.00
8366;BME280;4220;42.502;24.188;2023-01-26T08:26:15;95468.09;;;2.03;100.00
8366;BME280;4220;42.502;24.188;2023-01-26T08:28:44;95430.28;;;1.81;100.00
8366;BME280;4220;42.502;24.188;2023-01-26T08:31:14;95476.94;;;2.10;100.00
8366;BME280;4220;42.502;24.188;2023-01-26T08:33:45;95475.97;;;2.11;100.00
8366;BME280;4220;42.502;24.188;2023-01-26T08:36:13;95467.63;;;2.07;100.00
8366;BME280;4220;42.502;24.188;2023-01-26T08:38:43;95467.47;;;2.09;100.00
8366;BME280;4220;42.502;24.188;2023-01-26T08:41:10;95472.88;;;2.15;100.00
8366;BME280;4220;42.502;24.188;2023-01-26T08:43:39;95470.91;;;2.17;100.00
8366;BME280;4220;42.502;24.188;2023-01-26T08:46:06;95468.78;;;2.13;100.00
8366;BME280;4220;42.502;24.188;2023-01-26T08:48:33;95468.47;;;2.16;100.00
8366;BME280;4220;42.502;24.188;2023-01-26T08:51:03;95474.66;;;2.15;100.00
8366;BME280;4220;42.502;24.188;2023-01-26T08:53:31;95467.66;;;2.15;100.00
8366;BME280;4220;42.502;24.188;2023-01-26T08:56:00;95455.84;;;2.03;100.00
8366;BME280;4220;42.502;24.188;2023-01-26T08:58:26;95474.53;;;2.16;100.00
8366;BME280;4220;42.502;24.188;2023-01-26T09:00:54;95473.34;;;2.19;100.00
8366;BME280;4220;42.502;24.188;2023-01-26T09:03:21;95469.47;;;2.23;100.00
8366;BME280;4220;42.502;24.188;2023-01-26T09:05:47;95473.22;;;2.28;100.00
8366;BME280;4220;42.502;24.188;2023-01-26T09:08:16;95485.00;;;2.32;100.00
8366;BME280;4220;42.502;24.188;2023-01-26T09:10:43;95468.47;;;2.32;100.00
8366;BME280;4220;42.502;24.188;2023-01-26T09:13:10;95472.25;;;2.37;100.00
8366;BME280;4220;42.502;24.188;2023-01-26T09:15:37;95463.91;;;2.26;100.00
8366;BME280;4220;42.502;24.188;2023-01-26T09:18:04;95471.72;;;2.18;100.00
8366;BME280;4220;42.502;24.188;2023-01-26T09:20:32;95471.06;;;2.08;100.00
8366;BME280;4220;42.502;24.188;2023-01-26T09:23:00;95461.22;;;2.02;100.00
8366;BME280;4220;42.502;24.188;2023-01-26T09:25:28;95464.19;;;2.07;100.00
8366;BME280;4220;42.502;24.188;2023-01-26T09:27:55;95462.22;;;2.01;100.00
8366;BME280;4220;42.502;24.188;2023-01-26T09:30:22;95447.50;;;2.08;100.00
8366;BME280;4220;42.502;24.188;2023-01-26T09:32:52;95446.56;;;2.25;100.00
8366;BME280;4220;42.502;24.188;2023-01-26T09:35:23;95441.50;;;2.39;100.00
8366;BME280;4220;42.502;24.188;2023-01-26T09:37:50;95444.13;;;2.55;100.00
8366;BME280;4220;42.502;24.188;2023-01-26T09:40:21;95428.09;;;2.67;100.00
8366;BME280;4220;42.502;24.188;2023-01-26T09:43:06;95425.28;;;2.76;100.00
8366;BME280;4220;42.502;24.188;2023-01-26T09:45:43;95425.28;;;2.84;100.00
8366;BME280;4220;42.502;24.188;2023-01-26T09:48:30;95420.06;;;2.84;100.00
8366;BME280;4220;42.502;24.188;2023-01-26T09:51:03;95412.19;;;2.76;100.00
8366;BME280;4220;42.502;24.188;2023-01-26T09:53:42;95396.81;;;2.81;100.00
8366;BME280;4220;42.502;24.188;2023-01-26T09:56:14;95396.81;;;2.89;100.00
8366;BME280;4220;42.502;24.188;2023-01-26T09:58:50;95368.50;;;2.77;100.00
8366;BME280;4220;42.502;24.188;2023-01-26T10:01:25;95374.50;;;2.93;100.00
8366;BME280;4220;42.502;24.188;2023-01-26T10:04:00;95386.59;;;3.10;100.00
8366;BME280;4220;42.502;24.188;2023-01-26T10:06:31;95381.00;;;3.13;100.00
8366;BME280;4220;42.502;24.188;2023-01-26T10:09:01;95393.72;;;3.24;100.00
8366;BME280;4220;42.502;24.188;2023-01-26T10:11:31;95388.19;;;3.19;100.00
8366;BME280;4220;42.502;24.188;2023-01-26T10:14:08;95375.78;;;3.13;100.00
8366;BME280;4220;42.502;24.188;2023-01-26T10:16:38;95372.75;;;3.24;100.00
8366;BME280;4220;42.502;24.188;2023-01-26T10:19:12;95373.06;;;3.38;100.00
8366;BME280;4220;42.502;24.188;2023-01-26T10:21:43;95364.97;;;3.47;100.00
8366;BME280;4220;42.502;24.188;2023-01-26T10:24:13;95362.97;;;3.57;100.00
8366;BME280;4220;42.502;24.188;2023-01-26T10:26:42;95361.06;;;3.43;100.00
8366;BME280;4220;42.502;24.188;2023-01-26T10:29:13;95344.00;;;3.47;100.00
8366;BME280;4220;42.502;24.188;2023-01-26T10:31:41;95333.94;;;3.59;100.00
8366;BME280;4220;42.502;24.188;2023-01-26T10:34:13;95334.59;;;3.61;100.00
8366;BME280;4220;42.502;24.188;2023-01-26T10:36:43;95325.63;;;3.55;100.00
8366;BME280;4220;42.502;24.188;2023-01-26T10:39:12;95319.47;;;3.40;100.00
8366;BME280;4220;42.502;24.188;2023-01-26T10:41:40;95310.16;;;3.29;100.00
8366;BME280;4220;42.502;24.188;2023-01-26T10:44:23;95292.41;;;3.17;100.00
8366;BME280;4220;42.502;24.188;2023-01-26T10:47:02;95292.13;;;3.35;100.00
8366;BME280;4220;42.502;24.188;2023-01-26T10:49:29;95254.25;;;3.14;100.00
8366;BME280;4220;42.502;24.188;2023-01-26T10:52:06;95279.09;;;3.26;100.00
8366;BME280;4220;42.502;24.188;2023-01-26T10:54:33;95266.56;;;3.06;100.00
8366;BME280;4220;42.502;24.188;2023-01-26T10:57:04;95259.88;;;3.03;100.00
8366;BME280;4220;42.502;24.188;2023-01-26T10:59:36;95249.22;;;3.05;100.00
8366;BME280;4220;42.502;24.188;2023-01-26T11:02:21;95226.91;;;2.78;100.00
8366;BME280;4220;42.502;24.188;2023-01-26T11:05:17;95248.03;;;2.77;100.00
8366;BME280;4220;42.502;24.188;2023-01-26T11:07:46;95232.38;;;2.60;100.00
8366;BME280;4220;42.502;24.188;2023-01-26T11:10:23;95216.25;;;2.41;100.00
8366;BME280;4220;42.502;24.188;2023-01-26T11:12:55;95220.00;;;2.38;100.00
8366;BME280;4220;42.502;24.188;2023-01-26T11:15:35;95215.66;;;2.23;100.00
8366;BME280;4220;42.502;24.188;2023-01-26T11:18:14;95205.06;;;2.16;100.00
8366;BME280;4220;42.502;24.188;2023-01-26T11:20:48;95204.50;;;2.37;100.00
8366;BME280;4220;42.502;24.188;2023-01-26T11:23:23;95203.34;;;2.39;100.00
8366;BME280;4220;42.502;24.188;2023-01-26T11:26:15;95199.88;;;2.47;100.00
8366;BME280;4220;42.502;24.188;2023-01-26T11:28:52;95202.78;;;2.60;100.00
8366;BME280;4220;42.502;24.188;2023-01-26T11:31:31;95208.78;;;2.69;100.00
8366;BME280;4220;42.502;24.188;2023-01-26T11:34:14;95195.34;;;2.72;100.00
8366;BME280;4220;42.502;24.188;2023-01-26T11:36:51;95190.75;;;2.74;100.00
8366;BME280;4220;42.502;24.188;2023-01-26T11:39:27;95186.97;;;2.76;100.00
8366;BME280;4220;42.502;24.188;2023-01-26T11:42:19;95181.59;;;2.78;100.00
8366;BME280;4220;42.502;24.188;2023-01-26T11:45:07;95174.22;;;2.73;100.00
8366;BME280;4220;42.502;24.188;2023-01-26T11:47:52;95180.06;;;2.83;100.00
8366;BME280;4220;42.502;24.188;2023-01-26T11:50:29;95154.97;;;2.66;100.00
8366;BME280;4220;42.502;24.188;2023-01-26T11:53:16;95155.59;;;2.68;100.00
8366;BME280;4220;42.502;24.188;2023-01-26T11:55:53;95165.06;;;2.77;100.00
8366;BME280;4220;42.502;24.188;2023-01-26T11:58:30;95128.03;;;2.57;100.00
8366;BME280;4220;42.502;24.188;2023-01-26T12:01:01;95165.41;;;2.74;100.00
8366;BME280;4220;42.502;24.188;2023-01-26T12:03:34;95171.50;;;2.67;100.00
8366;BME280;4220;42.502;24.188;2023-01-26T12:06:06;95160.41;;;2.56;100.00
8366;BME280;4220;42.502;24.188;2023-01-26T12:08:37;95145.84;;;2.54;100.00
8366;BME280;4220;42.502;24.188;2023-01-26T12:11:08;95145.34;;;2.58;100.00
8366;BME280;4220;42.502;24.188;2023-01-26T12:13:55;95155.13;;;2.64;100.00
8366;BME280;4220;42.502;24.188;2023-01-26T12:16:32;95150.41;;;2.60;100.00
8366;BME280;4220;42.502;24.188;2023-01-26T12:19:11;95141.75;;;2.59;100.00
8366;BME280;4220;42.502;24.188;2023-01-26T12:21:42;95095.41;;;2.37;100.00
8366;BME280;4220;42.502;24.188;2023-01-26T12:24:13;95135.47;;;2.69;100.00
8366;BME280;4220;42.502;24.188;2023-01-26T12:26:48;95132.69;;;2.70;100.00
8366;BME280;4220;42.502;24.188;2023-01-26T12:29:21;95128.75;;;2.74;100.00
8366;BME280;4220;42.502;24.188;2023-01-26T12:31:54;95121.00;;;2.81;100.00
8366;BME280;4220;42.502;24.188;2023-01-26T12:34:26;95121.63;;;2.83;100.00
8366;BME280;4220;42.502;24.188;2023-01-26T12:37:06;95124.63;;;2.80;100.00
8366;BME280;4220;42.502;24.188;2023-01-26T12:39:43;95111.03;;;2.76;100.00
8366;BME280;4220;42.502;24.188;2023-01-26T12:42:18;95104.34;;;2.74;100.00
8366;BME280;4220;42.502;24.188;2023-01-26T12:44:53;95099.28;;;2.72;100.00
8366;BME280;4220;42.502;24.188;2023-01-26T12:47:29;95108.47;;;2.68;100.00
8366;BME280;4220;42.502;24.188;2023-01-26T12:50:08;95096.25;;;2.60;100.00
8366;BME280;4220;42.502;24.188;2023-01-26T12:52:42;95101.63;;;2.67;100.00
8366;BME280;4220;42.502;24.188;2023-01-26T12:55:14;95105.84;;;2.68;100.00
8366;BME280;4220;42.502;24.188;2023-01-26T12:57:46;95105.22;;;2.66;100.00
8366;BME280;4220;42.502;24.188;2023-01-26T13:00:20;95071.63;;;2.47;100.00
8366;BME280;4220;42.502;24.188;2023-01-26T13:02:51;95083.75;;;2.48;100.00
8366;BME280;4220;42.502;24.188;2023-01-26T13:05:26;95097.00;;;2.38;100.00
8366;BME280;4220;42.502;24.188;2023-01-26T13:07:53;95090.97;;;2.38;100.00
8366;BME280;4220;42.502;24.188;2023-01-26T13:10:23;95091.44;;;2.41;100.00
8366;BME280;4220;42.502;24.188;2023-01-26T13:12:52;95086.91;;;2.35;100.00
8366;BME280;4220;42.502;24.188;2023-01-26T13:15:21;95077.91;;;2.38;100.00
8366;BME280;4220;42.502;24.188;2023-01-26T13:17:50;95080.53;;;2.38;100.00
8366;BME280;4220;42.502;24.188;2023-01-26T13:20:26;95077.25;;;2.36;100.00
8366;BME280;4220;42.502;24.188;2023-01-26T13:22:54;95082.13;;;2.39;100.00
8366;BME280;4220;42.502;24.188;2023-01-26T13:25:27;95063.50;;;2.34;100.00
8366;BME280;4220;42.502;24.188;2023-01-26T13:27:58;95034.34;;;2.14;100.00